Intervale, New Hampshire
Current Conditions -  °F | °C
As of 6:54 PM on Monday 20 Oct 2014 (Local Time) from KIZG Reporting Station
Few Clouds Few Clouds  
Wind Chill: 44°   Ceiling: Unl
Heat Index: 46°   Visibility: 10mi
Dew Point: 26°   Wind: 5mph
Humidity: 46%   Direction: 240°WSW
Pressure: 29.95"   Gusts: NA
Location:  44.07°N, 71.14°W
Report Text: KIZG 202254Z AUTO 24004KT 10SM FEW080 08/M03 A2995 RMK AO2 SLP147 T00781033
Loading
Personal Weather Stations






























Interactive Weather Map
Tropical Storm Tracking
New forecast layout! Learn more

10-Day Weather Forecast

Advertisements
Track Severe Weather on mobile